Time;durP1;ratioP1;P1;durP2;ratioP2;P2;SDS_P1;SDS_P2;PMS_P1;PMS_P2;Temp;Humidity;BMP_temperature;BMP_pressure;BME280_temperature;BME280_humidity;BME280_pressure;Samples;Min_cycle;Max_cycle;Signal;HPM_P1;HPM_P2
2022/08/09 00:00:06;;;;;;;5.63;4.68;;;;;;;14.76;100.00;96422.41;1030293;28;20062;-71
2022/08/09 00:00:36;;;;;;;6.25;4.60;;;;;;;14.75;100.00;96426.88;1026684;28;20484;-71
2022/08/09 00:01:07;;;;;;;5.88;4.65;;;;;;;14.74;100.00;96425.31;1025701;28;20022;-70
2022/08/09 00:01:37;;;;;;;5.72;4.35;;;;;;;14.75;100.00;96426.09;1030451;28;20128;-71
2022/08/09 00:02:08;;;;;;;4.47;4.00;;;;;;;14.75;100.00;96428.72;1030509;28;20129;-70
2022/08/09 00:02:39;;;;;;;4.38;3.92;;;;;;;14.75;100.00;96426.09;1034640;28;20407;-71
2022/08/09 00:03:09;;;;;;;5.00;4.30;;;;;;;14.74;100.00;96427.94;1026070;28;20037;-70
2022/08/09 00:03:40;;;;;;;6.93;4.32;;;;;;;14.74;100.00;96424.53;1026465;28;20070;-71
2022/08/09 00:04:10;;;;;;;5.63;3.92;;;;;;;14.73;100.00;96423.72;1026323;28;20058;-70
2022/08/09 00:04:41;;;;;;;4.78;4.28;;;;;;;14.72;100.00;96427.44;1026660;28;20042;-71
2022/08/09 00:05:11;;;;;;;7.75;4.15;;;;;;;14.72;100.00;96427.44;1026774;28;20042;-71
2022/08/09 00:05:42;;;;;;;6.93;4.55;;;;;;;14.70;100.00;96429.56;1034691;28;20033;-71
2022/08/09 00:06:12;;;;;;;4.65;4.13;;;;;;;14.66;100.00;96428.53;1033997;28;20030;-71
2022/08/09 00:06:43;;;;;;;5.30;4.68;;;;;;;14.62;100.00;96416.94;1029287;28;20033;-70
2022/08/09 00:07:13;;;;;;;6.20;4.30;;;;;;;14.67;100.00;96424.81;1026748;28;20545;-71
2022/08/09 00:07:44;;;;;;;5.75;4.13;;;;;;;14.67;100.00;96422.16;1022462;29;20027;-71
2022/08/09 00:08:14;;;;;;;6.70;4.30;;;;;;;14.67;100.00;96427.44;1022046;28;20035;-71
2022/08/09 00:08:47;;;;;;;6.85;4.50;;;;;;;14.66;100.00;96425.88;1015101;29;20027;-72
2022/08/09 00:09:17;;;;;;;4.82;4.35;;;;;;;14.64;100.00;96425.34;1018590;29;20032;-70
2022/08/09 00:09:48;;;;;;;5.10;4.30;;;;;;;14.61;100.00;96426.69;1020850;28;20035;-71
2022/08/09 00:10:18;;;;;;;4.43;4.03;;;;;;;14.63;100.00;96423.00;1026710;28;20045;-71
2022/08/09 00:10:49;;;;;;;4.47;4.07;;;;;;;14.61;100.00;96425.88;1030515;28;20018;-71
2022/08/09 00:11:20;;;;;;;6.70;4.13;;;;;;;14.61;100.00;96420.59;1029662;28;20026;-70
2022/08/09 00:11:50;;;;;;;5.57;3.90;;;;;;;14.59;100.00;96420.09;1026704;28;20136;-71
2022/08/09 00:12:21;;;;;;;4.47;4.07;;;;;;;14.60;100.00;96419.03;1030328;28;20530;-71
2022/08/09 00:12:51;;;;;;;6.00;4.43;;;;;;;14.60;100.00;96419.03;1030791;28;20038;-70
2022/08/09 00:13:22;;;;;;;5.70;4.05;;;;;;;14.60;100.00;96422.47;1026509;28;20038;-71
2022/08/09 00:13:52;;;;;;;4.40;4.00;;;;;;;14.60;100.00;96425.09;1030476;28;20037;-71
2022/08/09 00:14:23;;;;;;;4.93;3.97;;;;;;;14.59;100.00;96418.25;1030387;28;20543;-71
2022/08/09 00:14:53;;;;;;;4.40;3.90;;;;;;;14.59;100.00;96417.47;1030394;28;20031;-71
2022/08/09 00:15:24;;;;;;;5.32;3.78;;;;;;;14.58;100.00;96421.16;1030734;28;20070;-71
2022/08/09 00:15:54;;;;;;;5.32;4.13;;;;;;;14.60;100.00;96421.69;1034653;28;20095;-70
2022/08/09 00:16:25;;;;;;;7.32;4.05;;;;;;;14.59;100.00;96422.75;1034135;28;20032;-71
2022/08/09 00:16:55;;;;;;;4.05;3.50;;;;;;;14.59;100.00;96420.88;1034566;28;20026;-71
2022/08/09 00:17:26;;;;;;;7.10;3.70;;;;;;;14.59;100.00;96418.25;1034471;28;20105;-71
2022/08/09 00:17:56;;;;;;;6.85;4.63;;;;;;;14.59;100.00;96417.47;1030660;28;20547;-71
2022/08/09 00:18:27;;;;;;;4.40;4.00;;;;;;;14.58;100.00;96421.94;1030445;28;20038;-71
2022/08/09 00:18:57;;;;;;;6.35;3.60;;;;;;;14.58;100.00;96421.16;1023536;28;20034;-71
2022/08/09 00:19:28;;;;;;;4.07;3.67;;;;;;;14.57;100.00;96422.22;1018816;29;20090;-71
2022/08/09 00:19:58;;;;;;;6.07;3.72;;;;;;;14.55;100.00;96414.56;1022531;28;20039;-70
2022/08/09 00:20:29;;;;;;;4.30;3.75;;;;;;;14.56;100.00;96423.28;1022240;28;20035;-71
2022/08/09 00:21:01;;;;;;;4.88;3.95;;;;;;;14.52;100.00;96416.94;1026467;28;20564;-70
2022/08/09 00:21:31;;;;;;;4.32;3.92;;;;;;;14.54;100.00;96418.25;1025722;28;20039;-71
2022/08/09 00:22:02;;;;;;;4.63;3.88;;;;;;;14.54;100.00;96420.13;1023805;28;20035;-70
2022/08/09 00:22:33;;;;;;;5.60;3.70;;;;;;;14.54;100.00;96425.41;1030848;28;20064;-71
2022/08/09 00:23:03;;;;;;;4.10;3.70;;;;;;;14.53;100.00;96424.59;1030347;28;20472;-71
2022/08/09 00:23:34;;;;;;;9.13;4.20;;;;;;;14.50;100.00;96419.88;1026525;28;20038;-70
2022/08/09 00:24:04;;;;;;;4.85;4.18;;;;;;;14.54;100.00;96422.75;1026368;28;20027;-70
2022/08/09 00:24:35;;;;;;;5.35;3.90;;;;;;;14.51;100.00;96420.66;1018603;29;20548;-71
2022/08/09 00:25:06;;;;;;;5.43;3.85;;;;;;;14.52;100.00;96433.59;1022733;28;20027;-71
2022/08/09 00:25:36;;;;;;;4.20;3.80;;;;;;;14.52;100.00;96425.69;1026254;28;20031;-70
2022/08/09 00:26:07;;;;;;;5.55;3.88;;;;;;;14.47;100.00;96417.72;1022627;28;20126;-71
2022/08/09 00:26:38;;;;;;;5.72;4.00;;;;;;;14.52;100.00;96424.88;1026456;28;20070;-70
2022/08/09 00:27:08;;;;;;;5.82;4.00;;;;;;;14.52;100.00;96432.78;1026172;28;20041;-70
2022/08/09 00:27:38;;;;;;;7.25;4.10;;;;;;;14.51;100.00;96428.56;1022747;28;20065;-70
2022/08/09 00:28:09;;;;;;;4.38;3.97;;;;;;;14.50;100.00;96421.69;1026584;28;20022;-70
2022/08/09 00:28:39;;;;;;;4.68;3.85;;;;;;;14.34;100.00;96405.88;1030380;28;20037;-71
2022/08/09 00:29:13;;;;;;;5.45;4.40;;;;;;;14.47;100.00;96430.16;1022335;28;20026;-71
2022/08/09 00:29:43;;;;;;;5.57;3.88;;;;;;;14.43;100.00;96423.84;1026434;28;20030;-71
2022/08/09 00:30:14;;;;;;;5.20;4.13;;;;;;;14.39;100.00;96418.31;1026412;28;20473;-70
2022/08/09 00:30:44;;;;;;;4.95;3.90;;;;;;;14.44;100.00;96428.03;1023421;28;20055;-71
2022/08/09 00:31:15;;;;;;;4.70;4.30;;;;;;;14.44;100.00;96422.75;1029608;28;20030;-70
2022/08/09 00:31:45;;;;;;;5.68;4.43;;;;;;;14.44;100.00;96430.69;1026484;28;20427;-70
2022/08/09 00:32:16;;;;;;;4.32;3.92;;;;;;;14.42;100.00;96433.59;1026323;28;20531;-72
2022/08/09 00:32:47;;;;;;;5.43;4.50;;;;;;;14.43;100.00;96434.41;1030543;28;20018;-71
2022/08/09 00:33:17;;;;;;;10.43;4.32;;;;;;;14.41;100.00;96426.72;1030636;28;20054;-70
2022/08/09 00:33:49;;;;;;;4.50;3.88;;;;;;;14.41;100.00;96433.88;1034396;28;20104;-71
2022/08/09 00:34:19;;;;;;;4.32;3.92;;;;;;;14.40;100.00;96435.72;1030202;28;20030;-71
2022/08/09 00:34:49;;;;;;;7.78;4.28;;;;;;;14.39;100.00;96434.16;1026706;28;20101;-70
2022/08/09 00:35:20;;;;;;;5.22;3.78;;;;;;;14.38;100.00;96428.06;1027467;28;20030;-70
2022/08/09 00:35:51;;;;;;;7.63;4.05;;;;;;;14.39;100.00;96436.78;1029998;28;20439;-70
2022/08/09 00:36:25;;;;;;;6.45;3.92;;;;;;;14.38;100.00;96438.63;1031756;28;20018;-71
2022/08/09 00:36:55;;;;;;;4.85;4.00;;;;;;;14.30;100.00;96419.91;1031504;28;20041;-70
2022/08/09 00:37:26;;;;;;;7.32;3.78;;;;;;;14.37;100.00;96431.75;1031864;28;20034;-70
2022/08/09 00:37:57;;;;;;;5.22;4.18;;;;;;;14.36;100.00;96430.19;1032200;28;20030;-70
2022/08/09 00:38:27;;;;;;;4.13;3.72;;;;;;;14.39;100.00;96432.28;1022695;28;20051;-70
2022/08/09 00:38:57;;;;;;;7.88;4.15;;;;;;;14.37;100.00;96431.75;1024237;29;20038;-70
2022/08/09 00:39:28;;;;;;;4.45;4.00;;;;;;;14.38;100.00;96432.53;1025747;28;20444;-71
2022/08/09 00:39:58;;;;;;;5.78;3.70;;;;;;;14.39;100.00;96428.88;1023423;28;20027;-70
2022/08/09 00:40:29;;;;;;;8.00;4.20;;;;;;;14.38;100.00;96433.34;1027055;28;20026;-70
2022/08/09 00:40:59;;;;;;;8.50;4.35;;;;;;;14.39;100.00;96434.94;1026718;28;20046;-70
2022/08/09 00:41:30;;;;;;;4.45;4.05;;;;;;;14.38;100.00;96436.00;1026198;28;20082;-71
2022/08/09 00:42:00;;;;;;;4.75;4.35;;;;;;;14.37;100.00;96431.75;1026825;28;20090;-70
2022/08/09 00:42:31;;;;;;;7.00;4.32;;;;;;;14.37;100.00;96431.75;1030610;28;20590;-70
2022/08/09 00:43:01;;;;;;;4.57;4.13;;;;;;;14.37;100.00;96433.63;1026696;28;20023;-71
2022/08/09 00:43:33;;;;;;;5.10;4.15;;;;;;;14.36;100.00;96434.69;1030295;28;20382;-70
2022/08/09 00:44:04;;;;;;;4.57;4.00;;;;;;;14.34;100.00;96429.66;1030773;28;20531;-70
2022/08/09 00:44:34;;;;;;;5.55;4.40;;;;;;;14.35;100.00;96431.25;1030266;28;20029;-71
2022/08/09 00:45:06;;;;;;;4.70;4.28;;;;;;;14.36;100.00;96432.03;1030567;28;20461;-70
2022/08/09 00:45:37;;;;;;;4.93;4.38;;;;;;;14.36;100.00;96434.69;1030301;28;20026;-70
2022/08/09 00:46:08;;;;;;;4.40;4.00;;;;;;;14.35;100.00;96433.06;1026285;28;20077;-70
2022/08/09 00:46:39;;;;;;;4.07;3.63;;;;;;;14.34;100.00;96429.66;1026701;28;20400;-71
2022/08/09 00:47:09;;;;;;;8.25;4.40;;;;;;;14.30;100.00;96427.84;1030445;28;20022;-70
2022/08/09 00:47:40;;;;;;;5.30;4.25;;;;;;;14.33;100.00;96433.38;1026096;28;20122;-70
2022/08/09 00:48:11;;;;;;;4.13;3.72;;;;;;;14.32;100.00;96439.72;1026578;28;20058;-70
2022/08/09 00:48:41;;;;;;;5.70;4.18;;;;;;;14.31;100.00;96432.81;1020662;29;20027;-69
2022/08/09 00:49:12;;;;;;;4.13;3.72;;;;;;;14.30;100.00;96436.53;1022404;28;20023;-70
2022/08/09 00:49:42;;;;;;;4.20;3.80;;;;;;;14.29;100.00;96427.03;1022473;28;20024;-70
2022/08/09 00:50:13;;;;;;;8.63;5.00;;;;;;;14.29;100.00;96434.97;1026289;28;20931;-70
2022/08/09 00:50:43;;;;;;;5.63;4.28;;;;;;;14.29;100.00;96440.25;1030389;28;20068;-70
2022/08/09 00:51:15;;;;;;;6.32;4.32;;;;;;;14.29;100.00;96437.59;1029543;28;20540;-69
2022/08/09 00:51:45;;;;;;;4.38;3.70;;;;;;;14.27;100.00;96431.78;1030074;28;20026;-70
2022/08/09 00:52:16;;;;;;;5.32;3.95;;;;;;;14.25;100.00;96436.56;1030316;28;20065;-71
2022/08/09 00:52:46;;;;;;;5.97;4.18;;;;;;;14.26;100.00;96440.78;1030137;28;20061;-70
2022/08/09 00:53:16;;;;;;;4.60;4.15;;;;;;;14.26;100.00;96434.72;1030394;28;20026;-70
2022/08/09 00:53:47;;;;;;;4.70;4.03;;;;;;;14.26;100.00;96440.78;1030298;28;20027;-70
2022/08/09 00:54:17;;;;;;;4.22;3.83;;;;;;;14.09;100.00;96413.91;1022189;29;20055;-70
2022/08/09 00:54:50;;;;;;;4.18;3.58;;;;;;;14.26;100.00;96435.50;1022221;28;20031;-70
2022/08/09 00:55:20;;;;;;;5.60;4.13;;;;;;;14.27;100.00;96439.72;1022631;28;20053;-71
2022/08/09 00:55:51;;;;;;;7.05;3.90;;;;;;;14.26;100.00;96440.78;1026635;28;20038;-69
2022/08/09 00:56:21;;;;;;;5.50;3.85;;;;;;;14.26;100.00;96435.50;1026179;28;20421;-69
2022/08/09 00:56:52;;;;;;;5.43;3.90;;;;;;;14.26;100.00;96432.84;1026236;28;20030;-69
2022/08/09 00:57:22;;;;;;;4.30;3.95;;;;;;;14.18;100.00;96428.13;1022378;28;20027;-70
2022/08/09 00:57:53;;;;;;;5.57;4.15;;;;;;;14.25;100.00;96441.03;1018440;29;20023;-69
2022/08/09 00:58:23;;;;;;;6.88;4.20;;;;;;;14.23;100.00;96433.38;1022140;29;20066;-70
2022/08/09 00:58:54;;;;;;;5.43;3.92;;;;;;;14.24;100.00;96434.97;1018425;29;20027;-70
2022/08/09 00:59:25;;;;;;;4.57;4.18;;;;;;;14.22;100.00;96434.47;1018837;28;20043;-70
2022/08/09 00:59:55;;;;;;;5.93;4.20;;;;;;;14.22;100.00;96438.91;1030279;28;20030;-69
2022/08/09 01:00:26;;;;;;;4.07;3.67;;;;;;;14.22;100.00;96439.75;1026360;28;20054;-71
2022/08/09 01:00:56;;;;;;;5.28;4.13;;;;;;;14.21;100.00;96438.13;1030350;28;20776;-70
2022/08/09 01:01:31;;;;;;;6.93;4.15;;;;;;;14.21;100.00;96434.72;1025498;28;20023;-70
2022/08/09 01:02:02;;;;;;;6.47;4.43;;;;;;;14.20;100.00;96438.41;1023085;28;20019;-69
2022/08/09 01:02:32;;;;;;;9.50;4.50;;;;;;;14.13;100.00;96425.50;1022136;29;20059;-71
2022/08/09 01:03:16;;;;;;;4.38;3.97;;;;;;;14.18;100.00;96438.66;1018219;29;20024;-70
2022/08/09 01:03:54;;;;;;;5.55;4.28;;;;;;;14.20;100.00;96441.06;1021978;28;20567;-72
2022/08/09 01:04:34;;;;;;;6.75;4.30;;;;;;;14.20;100.00;96436.56;1014264;29;20028;-70
2022/08/09 01:05:13;;;;;;;5.93;4.45;;;;;;;14.20;100.00;96441.84;1022372;29;20027;-70
2022/08/09 01:06:17;;;;;;;5.13;4.13;;;;;;;14.20;100.00;96435.78;1028906;28;20033;-70
2022/08/09 01:06:59;;;;;;;5.47;4.20;;;;;;;14.19;100.00;96440.28;1027439;28;20014;-71
2022/08/09 01:07:54;;;;;;;5.88;4.45;;;;;;;14.18;100.00;96438.66;1026474;28;20030;-70
2022/08/09 01:08:39;;;;;;;5.50;3.97;;;;;;;14.17;100.00;96441.59;1030147;28;20038;-70
2022/08/09 01:09:15;;;;;;;6.15;4.00;;;;;;;14.14;100.00;96435.00;1030061;28;20742;-70
2022/08/09 01:10:24;;;;;;;5.75;4.25;;;;;;;14.13;100.00;96442.13;1031331;28;20049;-71
2022/08/09 01:11:08;;;;;;;12.38;4.43;;;;;;;14.11;100.00;96438.94;1025730;28;20575;-69
2022/08/09 01:12:15;;;;;;;5.40;4.72;;;;;;;14.09;100.00;96435.03;1021678;29;20027;-70
2022/08/09 01:12:50;;;;;;;4.50;4.10;;;;;;;14.08;100.00;96438.69;1018549;29;20127;-71
2022/08/09 01:13:31;;;;;;;9.73;4.22;;;;;;;14.07;100.00;96442.41;1020894;28;20152;-70
2022/08/09 01:14:24;;;;;;;4.25;3.90;;;;;;;14.05;100.00;96445.31;1026259;28;20057;-70
2022/08/09 01:15:03;;;;;;;4.80;4.28;;;;;;;14.04;100.00;96448.22;1025261;28;20027;-70
2022/08/09 01:15:36;;;;;;;5.40;4.60;;;;;;;14.05;100.00;96445.31;1018621;28;20039;-70
2022/08/09 01:16:06;;;;;;;6.40;4.90;;;;;;;14.05;100.00;96436.59;1022260;29;20023;-70
2022/08/09 01:16:40;;;;;;;5.28;4.78;;;;;;;14.03;100.00;96441.34;1019536;29;20035;-70
2022/08/09 01:17:18;;;;;;;5.35;4.50;;;;;;;14.02;100.00;96437.16;1030091;28;20518;-70
2022/08/09 01:18:00;;;;;;;4.80;4.38;;;;;;;14.01;100.00;96449.53;1022259;29;20605;-70
2022/08/09 01:18:30;;;;;;;6.07;4.78;;;;;;;14.01;100.00;96435.53;1018722;28;20015;-71
2022/08/09 01:19:07;;;;;;;10.70;4.45;;;;;;;14.02;100.00;96445.84;1017448;29;20050;-70
2022/08/09 01:19:49;;;;;;;5.75;4.78;;;;;;;14.04;100.00;96448.22;1018357;29;20024;-70
2022/08/09 01:20:41;;;;;;;8.15;5.10;;;;;;;14.03;100.00;96449.28;1018269;29;20066;-71
2022/08/09 01:21:38;;;;;;;5.95;4.80;;;;;;;14.02;100.00;96445.84;1020987;29;20023;-70
2022/08/09 01:22:30;;;;;;;8.80;4.75;;;;;;;14.01;100.00;96451.38;1025013;28;20031;-70
2022/08/09 01:23:34;;;;;;;4.35;3.95;;;;;;;14.00;100.00;96447.94;1028280;28;20027;-70
2022/08/09 01:24:27;;;;;;;4.55;3.80;;;;;;;13.99;100.00;96451.66;1030554;28;20100;-70
2022/08/09 01:25:04;;;;;;;6.85;4.43;;;;;;;13.98;100.00;96449.28;1029710;28;20035;-71
2022/08/09 01:25:51;;;;;;;7.38;4.68;;;;;;;13.98;100.00;96446.63;1027352;28;20178;-71
2022/08/09 01:26:40;;;;;;;7.20;5.00;;;;;;;13.98;100.00;96447.41;1026521;28;20023;-70
2022/08/09 01:27:13;;;;;;;5.97;4.53;;;;;;;13.99;100.00;96448.22;1026487;28;20118;-70
2022/08/09 01:27:43;;;;;;;5.30;4.78;;;;;;;13.97;100.00;96445.84;1026064;28;20100;-69
2022/08/09 01:28:14;;;;;;;4.95;4.45;;;;;;;13.95;100.00;96441.88;1025004;28;20547;-70
2022/08/09 01:28:46;;;;;;;6.90;4.95;;;;;;;14.01;100.00;96448.75;1021886;29;20027;-71
2022/08/09 01:29:16;;;;;;;5.95;4.72;;;;;;;13.97;100.00;96445.06;1022040;28;20519;-71
2022/08/09 01:29:55;;;;;;;5.47;4.97;;;;;;;13.94;100.00;96440.31;1025992;28;20025;-70
2022/08/09 01:30:26;;;;;;;6.85;4.93;;;;;;;13.96;100.00;96440.84;1018272;29;20594;-71
2022/08/09 01:30:57;;;;;;;5.35;4.63;;;;;;;14.03;100.00;96446.63;1017202;29;20052;-69
2022/08/09 01:31:28;;;;;;;5.50;5.00;;;;;;;14.02;100.00;96448.50;1013575;29;20537;-70
2022/08/09 01:32:00;;;;;;;6.65;5.03;;;;;;;14.03;100.00;96451.91;1018257;29;20031;-69
2022/08/09 01:32:34;;;;;;;5.47;4.95;;;;;;;14.03;100.00;96447.41;1025771;28;20038;-70
2022/08/09 01:33:06;;;;;;;5.03;4.43;;;;;;;14.01;100.00;96451.38;1022811;28;20027;-70
2022/08/09 01:33:37;;;;;;;10.32;4.70;;;;;;;14.00;100.00;96447.16;1022648;28;20023;-69
2022/08/09 01:34:07;;;;;;;7.20;5.22;;;;;;;14.05;100.00;96450.59;1025270;28;20023;-70
2022/08/09 01:34:38;;;;;;;7.32;5.75;;;;;;;14.07;100.00;96455.59;1026083;28;20031;-70
2022/08/09 01:35:19;;;;;;;6.03;4.72;;;;;;;14.07;100.00;96448.47;1014296;29;20646;-70
2022/08/09 01:36:17;;;;;;;6.53;5.10;;;;;;;14.06;100.00;96457.44;1014120;29;20031;-71
2022/08/09 01:36:47;;;;;;;5.38;4.60;;;;;;;14.08;100.00;96454.53;1020902;28;20801;-70
2022/08/09 01:37:18;;;;;;;6.28;4.80;;;;;;;14.07;100.00;96453.75;1026107;28;20022;-71
2022/08/09 01:37:50;;;;;;;6.55;5.18;;;;;;;14.02;100.00;96442.44;1022040;28;20035;-70
2022/08/09 01:38:23;;;;;;;6.47;5.45;;;;;;;14.06;100.00;96451.38;1014295;29;20020;-70
2022/08/09 01:38:53;;;;;;;5.97;5.03;;;;;;;14.00;100.00;96442.69;1018273;29;20688;-70
2022/08/09 01:39:24;;;;;;;5.63;5.00;;;;;;;14.06;100.00;96451.38;1022009;28;20089;-69
2022/08/09 01:39:54;;;;;;;6.68;5.35;;;;;;;14.07;100.00;96456.38;1017913;29;20050;-70
2022/08/09 01:40:26;;;;;;;5.50;5.00;;;;;;;14.06;100.00;96456.66;1014329;29;20020;-70
2022/08/09 01:41:23;;;;;;;23.80;7.32;;;;;;;14.06;100.00;96451.38;1020432;28;20393;-71
2022/08/09 01:41:53;;;;;;;15.60;6.07;;;;;;;14.06;100.00;96452.16;1021896;29;20078;-70
2022/08/09 01:42:24;;;;;;;8.10;5.60;;;;;;;14.04;100.00;96448.22;1029479;28;20141;-70
2022/08/09 01:42:54;;;;;;;22.55;6.28;;;;;;;14.07;100.00;96452.97;1018048;29;20071;-70
2022/08/09 01:43:25;;;;;;;7.03;5.13;;;;;;;14.06;100.00;96451.38;1022285;29;20091;-71
2022/08/09 01:43:57;;;;;;;14.18;5.97;;;;;;;14.06;100.00;96451.38;1022005;29;20028;-70
2022/08/09 01:44:28;;;;;;;6.82;5.38;;;;;;;14.05;100.00;96449.78;1022410;28;20027;-71
2022/08/09 01:44:58;;;;;;;8.90;5.35;;;;;;;14.07;100.00;96452.97;1022570;28;20505;-70
2022/08/09 01:45:29;;;;;;;9.48;5.43;;;;;;;14.06;100.00;96452.16;1022217;29;20094;-70
2022/08/09 01:45:59;;;;;;;9.50;5.13;;;;;;;14.00;100.00;96441.88;1019404;28;20016;-71
2022/08/09 01:46:39;;;;;;;6.55;5.03;;;;;;;14.04;100.00;96454.28;1022097;29;20034;-70
2022/08/09 01:47:09;;;;;;;6.18;5.47;;;;;;;14.03;100.00;96451.91;1018240;29;20641;-70
2022/08/09 01:47:40;;;;;;;5.50;5.00;;;;;;;14.02;100.00;96445.06;1017933;29;20020;-70
2022/08/09 01:48:10;;;;;;;6.63;5.07;;;;;;;14.05;100.00;96450.59;1022062;29;20073;-71
2022/08/09 01:48:41;;;;;;;6.38;5.53;;;;;;;14.07;100.00;96450.31;1021354;29;20023;-71
2022/08/09 01:49:16;;;;;;;7.00;5.05;;;;;;;14.05;100.00;96449.78;1021287;29;20030;-70
2022/08/09 01:49:46;;;;;;;6.80;5.10;;;;;;;14.03;100.00;96450.06;1022050;29;20046;-71
2022/08/09 01:50:17;;;;;;;7.13;5.10;;;;;;;14.03;100.00;96451.91;1014830;29;20152;-71
2022/08/09 01:50:49;;;;;;;9.27;4.75;;;;;;;14.05;100.00;96457.69;1014837;29;20143;-72
2022/08/09 01:51:19;;;;;;;6.18;5.40;;;;;;;14.04;100.00;96456.13;1017373;29;20030;-71
2022/08/09 01:51:58;;;;;;;6.60;5.32;;;;;;;14.04;100.00;96448.22;1025961;28;20029;-70
2022/08/09 01:52:28;;;;;;;7.40;5.30;;;;;;;14.04;100.00;96453.47;1022008;29;20138;-71
2022/08/09 01:52:58;;;;;;;7.45;5.18;;;;;;;14.01;100.00;96454.00;1025783;28;20057;-71
2022/08/09 01:53:29;;;;;;;6.65;5.45;;;;;;;14.03;100.00;96449.28;1018306;29;20667;-70
2022/08/09 01:54:01;;;;;;;6.03;5.18;;;;;;;14.01;100.00;96454.00;1018279;29;20024;-71
2022/08/09 01:54:35;;;;;;;7.82;5.28;;;;;;;13.97;100.00;96447.69;1016234;29;20038;-70
2022/08/09 01:55:06;;;;;;;5.70;4.95;;;;;;;14.00;100.00;96453.22;1022872;28;20034;-70
2022/08/09 01:55:37;;;;;;;8.00;5.13;;;;;;;13.98;100.00;96451.91;1022181;29;20420;-70
2022/08/09 01:56:08;;;;;;;7.57;4.93;;;;;;;14.02;100.00;96450.34;1021419;29;20466;-70
2022/08/09 01:56:40;;;;;;;5.53;5.00;;;;;;;14.00;100.00;96452.44;1021712;29;20057;-71
2022/08/09 01:57:13;;;;;;;6.03;5.05;;;;;;;14.03;100.00;96462.47;1022153;29;20118;-71
2022/08/09 01:57:45;;;;;;;5.70;5.10;;;;;;;14.00;100.00;96457.72;1022149;28;20047;-71
2022/08/09 01:58:15;;;;;;;6.05;4.90;;;;;;;14.03;100.00;96457.97;1014260;29;20024;-71
2022/08/09 01:58:46;;;;;;;8.02;5.32;;;;;;;13.95;100.00;96441.88;1026027;28;20023;-71
2022/08/09 01:59:17;;;;;;;7.35;5.18;;;;;;;13.95;100.00;96441.88;1026133;28;20026;-71
2022/08/09 01:59:49;;;;;;;5.68;5.18;;;;;;;14.02;100.00;96452.97;1026218;28;20027;-70
2022/08/09 02:00:19;;;;;;;5.95;5.35;;;;;;;14.00;100.00;96453.22;1029588;28;20027;-71
2022/08/09 02:00:49;;;;;;;5.38;4.90;;;;;;;14.00;100.00;96457.72;1025991;28;20027;-70
2022/08/09 02:01:20;;;;;;;14.10;5.05;;;;;;;14.01;100.00;96454.00;1021425;29;20027;-70
2022/08/09 02:01:52;;;;;;;6.93;5.63;;;;;;;13.98;100.00;96454.53;1022092;29;20058;-70
2022/08/09 02:02:25;;;;;;;8.60;5.10;;;;;;;13.94;100.00;96453.50;1022492;28;20038;-70
2022/08/09 02:02:56;;;;;;;6.95;4.90;;;;;;;13.85;100.00;96438.22;1026006;28;20089;-71
2022/08/09 02:03:28;;;;;;;6.93;4.93;;;;;;;13.95;100.00;96450.63;1027264;28;20475;-71
2022/08/09 02:03:58;;;;;;;5.35;4.60;;;;;;;13.91;100.00;96452.97;1025865;28;20041;-70
2022/08/09 02:04:29;;;;;;;5.60;4.85;;;;;;;13.94;100.00;96454.28;1018140;29;20099;-71
2022/08/09 02:05:01;;;;;;;4.82;4.35;;;;;;;13.94;100.00;96453.50;1021805;29;20497;-71
2022/08/09 02:05:32;;;;;;;6.30;5.70;;;;;;;13.92;100.00;96464.34;1011767;29;20032;-71
2022/08/09 02:06:02;;;;;;;6.38;4.93;;;;;;;13.92;100.00;96456.41;1021927;29;20031;-71
2022/08/09 02:07:25;;;;;;;5.88;4.63;;;;;;;13.88;100.00;96457.97;1018278;29;20031;-70
2022/08/09 02:08:16;;;;;;;8.68;5.00;;;;;;;13.88;100.00;96469.34;1018110;28;20032;-71
2022/08/09 02:08:47;;;;;;;5.88;5.00;;;;;;;13.86;100.00;96460.91;1022051;28;20063;-70
2022/08/09 02:09:17;;;;;;;5.32;4.80;;;;;;;13.86;100.00;96460.91;1021996;28;20466;-70
2022/08/09 02:09:49;;;;;;;6.25;4.93;;;;;;;13.85;100.00;96469.88;1011781;29;20039;-70
2022/08/09 02:10:26;;;;;;;9.00;5.50;;;;;;;13.78;100.00;96453.53;1018520;29;20030;-69
2022/08/09 02:10:57;;;;;;;5.63;5.13;;;;;;;13.80;100.00;96454.03;1025875;28;20475;-69
2022/08/09 02:11:28;;;;;;;8.43;5.03;;;;;;;13.83;100.00;96465.91;1029257;28;20030;-71
2022/08/09 02:11:58;;;;;;;6.10;5.43;;;;;;;13.82;100.00;96467.78;1014096;29;20039;-69
2022/08/09 02:12:29;;;;;;;8.65;5.13;;;;;;;13.83;100.00;96463.28;1010498;29;20447;-70
2022/08/09 02:13:00;;;;;;;9.13;5.50;;;;;;;13.80;100.00;96464.59;1018235;29;20023;-71
2022/08/09 02:13:31;;;;;;;21.58;6.55;;;;;;;13.82;100.00;96467.78;1022268;28;20066;-70
2022/08/09 02:14:02;;;;;;;11.13;5.63;;;;;;;13.83;100.00;96458.78;1021982;29;20117;-70
2022/08/09 02:14:33;;;;;;;45.70;8.32;;;;;;;13.76;100.00;96450.34;1018542;29;20185;-70
2022/08/09 02:15:04;;;;;;;5.32;4.60;;;;;;;13.83;100.00;96458.78;1022021;28;20147;-70
2022/08/09 02:15:36;;;;;;;11.75;4.88;;;;;;;13.84;100.00;96464.84;1018519;29;20116;-70
2022/08/09 02:16:08;;;;;;;5.57;4.78;;;;;;;13.78;100.00;96450.91;1014228;29;20028;-70
2022/08/09 02:16:39;;;;;;;16.13;5.63;;;;;;;13.86;100.00;96463.53;1017447;29;20051;-69
2022/08/09 02:17:10;;;;;;;9.18;5.35;;;;;;;13.87;100.00;96465.13;1021904;29;20478;-69
2022/08/09 02:17:41;;;;;;;7.50;5.13;;;;;;;13.89;100.00;96467.50;1018584;29;20106;-68
2022/08/09 02:18:11;;;;;;;11.20;5.00;;;;;;;13.87;100.00;96454.56;1025350;28;20027;-70
2022/08/09 02:18:42;;;;;;;5.47;4.40;;;;;;;13.90;100.00;96463.78;1022638;28;20241;-69
2022/08/09 02:19:12;;;;;;;6.22;4.72;;;;;;;13.84;100.00;96457.72;1025867;28;20022;-70
2022/08/09 02:19:42;;;;;;;9.55;4.70;;;;;;;13.89;100.00;96465.66;1025874;28;20027;-70
2022/08/09 02:20:13;;;;;;;6.03;4.80;;;;;;;13.89;100.00;96462.22;1022037;29;20038;-69
2022/08/09 02:20:45;;;;;;;5.47;4.50;;;;;;;13.89;100.00;96465.66;1018623;29;20608;-70
2022/08/09 02:21:15;;;;;;;7.57;4.70;;;;;;;13.88;100.00;96461.44;1017437;29;20028;-69
2022/08/09 02:21:48;;;;;;;6.72;4.88;;;;;;;13.89;100.00;96467.50;1021891;29;20130;-70
2022/08/09 02:22:27;;;;;;;4.82;4.40;;;;;;;13.88;100.00;96464.06;1020897;28;20047;-70
2022/08/09 02:23:03;;;;;;;7.63;4.35;;;;;;;13.85;100.00;96467.25;1022059;29;20030;-70
2022/08/09 02:23:39;;;;;;;7.70;4.90;;;;;;;13.82;100.00;96462.50;1024096;28;20020;-70
2022/08/09 02:24:10;;;;;;;4.72;4.32;;;;;;;13.84;100.00;96463.00;1019303;28;20023;-70
2022/08/09 02:24:42;;;;;;;5.82;5.32;;;;;;;13.82;100.00;96456.44;1022174;29;20133;-71
2022/08/09 02:25:20;;;;;;;5.65;4.80;;;;;;;13.81;100.00;96468.81;1022068;29;20019;-70
2022/08/09 02:25:51;;;;;;;6.45;4.70;;;;;;;13.77;100.00;96459.06;1023163;28;20058;-70
2022/08/09 02:26:22;;;;;;;6.55;4.40;;;;;;;13.80;100.00;96469.88;1022064;29;20023;-70
2022/08/09 02:26:53;;;;;;;6.75;4.63;;;;;;;13.80;100.00;96469.09;1017980;29;20019;-69
2022/08/09 02:27:25;;;;;;;6.72;4.90;;;;;;;13.72;100.00;96457.22;1024240;28;20123;-69
2022/08/09 02:27:58;;;;;;;5.50;5.00;;;;;;;13.78;100.00;96461.44;1025793;28;20539;-70
2022/08/09 02:28:31;;;;;;;6.35;5.25;;;;;;;13.77;100.00;96464.34;1016946;28;20023;-69
2022/08/09 02:29:23;;;;;;;7.28;5.47;;;;;;;13.77;100.00;96464.34;1021268;29;20023;-70
2022/08/09 02:29:54;;;;;;;6.25;5.07;;;;;;;13.75;100.00;96467.25;1020868;29;20015;-69
2022/08/09 02:30:25;;;;;;;8.43;5.60;;;;;;;13.73;100.00;96461.44;1023566;28;20019;-70
2022/08/09 02:31:19;;;;;;;5.88;5.28;;;;;;;13.67;100.00;96459.84;1018729;29;20012;-70
2022/08/09 02:31:50;;;;;;;5.80;5.07;;;;;;;13.74;100.00;96470.91;1011098;29;20021;-71
2022/08/09 02:32:21;;;;;;;5.38;4.78;;;;;;;13.70;100.00;96461.16;1021552;28;20016;-70
2022/08/09 02:32:51;;;;;;;6.70;4.90;;;;;;;13.69;100.00;96463.03;1018926;29;20007;-70
2022/08/09 02:33:24;;;;;;;6.00;4.68;;;;;;;13.67;100.00;96455.34;1018987;29;20039;-71
2022/08/09 02:33:55;;;;;;;8.70;5.55;;;;;;;13.72;100.00;96467.78;1018717;29;20015;-70
2022/08/09 02:34:31;;;;;;;6.82;5.03;;;;;;;13.71;100.00;96460.91;1018913;29;20020;-70
2022/08/09 02:35:03;;;;;;;5.40;4.63;;;;;;;13.72;100.00;96459.06;1022914;29;20030;-70